sensor_id;sensor_type;location;lat;lon;timestamp;P1;durP1;ratioP1;P2;durP2;ratioP2
69244;SDS011;56357;52.304;4.870;2022-08-02T00:01:58;3.58;;;0.57;;
69244;SDS011;56357;52.304;4.870;2022-08-02T00:04:24;5.27;;;0.63;;
69244;SDS011;56357;52.304;4.870;2022-08-02T00:06:50;3.72;;;0.60;;
69244;SDS011;56357;52.304;4.870;2022-08-02T00:09:17;4.65;;;0.80;;
69244;SDS011;56357;52.304;4.870;2022-08-02T00:11:43;5.05;;;0.80;;
69244;SDS011;56357;52.304;4.870;2022-08-02T00:14:10;5.95;;;1.00;;
69244;SDS011;56357;52.304;4.870;2022-08-02T00:16:36;4.43;;;0.70;;
69244;SDS011;56357;52.304;4.870;2022-08-02T00:19:03;4.25;;;0.75;;
69244;SDS011;56357;52.304;4.870;2022-08-02T00:21:29;4.88;;;0.80;;
69244;SDS011;56357;52.304;4.870;2022-08-02T00:23:56;5.57;;;0.75;;
69244;SDS011;56357;52.304;4.870;2022-08-02T00:26:22;4.93;;;0.63;;
69244;SDS011;56357;52.304;4.870;2022-08-02T00:28:49;3.87;;;0.70;;
69244;SDS011;56357;52.304;4.870;2022-08-02T00:31:15;4.20;;;0.70;;
69244;SDS011;56357;52.304;4.870;2022-08-02T00:33:42;4.68;;;0.90;;
69244;SDS011;56357;52.304;4.870;2022-08-02T00:36:11;4.03;;;0.80;;
69244;SDS011;56357;52.304;4.870;2022-08-02T00:38:37;4.65;;;0.80;;
69244;SDS011;56357;52.304;4.870;2022-08-02T00:41:09;4.87;;;0.70;;
69244;SDS011;56357;52.304;4.870;2022-08-02T00:43:37;4.22;;;0.75;;
69244;SDS011;56357;52.304;4.870;2022-08-02T00:46:03;5.22;;;0.90;;
69244;SDS011;56357;52.304;4.870;2022-08-02T00:48:30;4.68;;;0.73;;
69244;SDS011;56357;52.304;4.870;2022-08-02T00:50:56;5.32;;;1.02;;
69244;SDS011;56357;52.304;4.870;2022-08-02T00:53:22;6.20;;;0.93;;
69244;SDS011;56357;52.304;4.870;2022-08-02T00:55:49;4.30;;;0.70;;
69244;SDS011;56357;52.304;4.870;2022-08-02T00:58:15;5.47;;;0.82;;
69244;SDS011;56357;52.304;4.870;2022-08-02T01:00:42;6.93;;;0.90;;
69244;SDS011;56357;52.304;4.870;2022-08-02T01:03:08;4.28;;;0.65;;
69244;SDS011;56357;52.304;4.870;2022-08-02T01:05:35;5.80;;;0.83;;
69244;SDS011;56357;52.304;4.870;2022-08-02T01:08:02;4.05;;;0.70;;
69244;SDS011;56357;52.304;4.870;2022-08-02T01:10:28;4.38;;;0.70;;
69244;SDS011;56357;52.304;4.870;2022-08-02T01:12:55;4.93;;;0.90;;
69244;SDS011;56357;52.304;4.870;2022-08-02T01:15:21;4.35;;;0.70;;
69244;SDS011;56357;52.304;4.870;2022-08-02T01:17:53;4.70;;;0.60;;
69244;SDS011;56357;52.304;4.870;2022-08-02T01:26:17;3.60;;;0.57;;
69244;SDS011;56357;52.304;4.870;2022-08-02T01:28:50;4.53;;;0.80;;
69244;SDS011;56357;52.304;4.870;2022-08-02T01:31:37;4.30;;;0.67;;
69244;SDS011;56357;52.304;4.870;2022-08-02T01:37:20;3.50;;;0.70;;
69244;SDS011;56357;52.304;4.870;2022-08-02T01:39:53;4.80;;;0.70;;
69244;SDS011;56357;52.304;4.870;2022-08-02T01:42:23;4.32;;;0.75;;
69244;SDS011;56357;52.304;4.870;2022-08-02T01:44:52;6.03;;;0.70;;
69244;SDS011;56357;52.304;4.870;2022-08-02T01:47:20;3.60;;;0.77;;
69244;SDS011;56357;52.304;4.870;2022-08-02T01:49:52;3.70;;;0.80;;
69244;SDS011;56357;52.304;4.870;2022-08-02T01:52:22;4.75;;;0.82;;
69244;SDS011;56357;52.304;4.870;2022-08-02T01:57:38;4.40;;;0.80;;
69244;SDS011;56357;52.304;4.870;2022-08-02T02:00:07;3.60;;;0.63;;
69244;SDS011;56357;52.304;4.870;2022-08-02T02:02:35;3.47;;;0.70;;
69244;SDS011;56357;52.304;4.870;2022-08-02T02:05:05;5.65;;;0.65;;
69244;SDS011;56357;52.304;4.870;2022-08-02T02:07:36;4.40;;;0.65;;
69244;SDS011;56357;52.304;4.870;2022-08-02T02:10:05;4.53;;;0.90;;
69244;SDS011;56357;52.304;4.870;2022-08-02T02:12:35;3.92;;;0.70;;
69244;SDS011;56357;52.304;4.870;2022-08-02T02:15:04;4.93;;;0.65;;
69244;SDS011;56357;52.304;4.870;2022-08-02T02:17:34;4.32;;;0.80;;
69244;SDS011;56357;52.304;4.870;2022-08-02T02:20:01;4.10;;;0.73;;
69244;SDS011;56357;52.304;4.870;2022-08-02T02:22:28;5.10;;;0.70;;
69244;SDS011;56357;52.304;4.870;2022-08-02T02:24:54;4.57;;;0.80;;
69244;SDS011;56357;52.304;4.870;2022-08-02T02:27:21;5.53;;;0.77;;
69244;SDS011;56357;52.304;4.870;2022-08-02T02:29:49;4.88;;;0.70;;
69244;SDS011;56357;52.304;4.870;2022-08-02T02:32:18;2.35;;;0.50;;
69244;SDS011;56357;52.304;4.870;2022-08-02T02:34:48;3.43;;;0.60;;
69244;SDS011;56357;52.304;4.870;2022-08-02T02:37:19;4.10;;;0.60;;
69244;SDS011;56357;52.304;4.870;2022-08-02T02:39:50;5.90;;;1.15;;
69244;SDS011;56357;52.304;4.870;2022-08-02T02:42:19;3.60;;;0.70;;
69244;SDS011;56357;52.304;4.870;2022-08-02T02:44:49;5.53;;;0.88;;
69244;SDS011;56357;52.304;4.870;2022-08-02T02:47:17;4.07;;;0.70;;
69244;SDS011;56357;52.304;4.870;2022-08-02T02:49:45;3.97;;;0.60;;
69244;SDS011;56357;52.304;4.870;2022-08-02T02:52:13;6.60;;;1.00;;
69244;SDS011;56357;52.304;4.870;2022-08-02T02:54:41;3.75;;;0.85;;
69244;SDS011;56357;52.304;4.870;2022-08-02T02:57:10;4.75;;;0.55;;
69244;SDS011;56357;52.304;4.870;2022-08-02T02:59:37;3.27;;;0.50;;
69244;SDS011;56357;52.304;4.870;2022-08-02T03:02:04;4.70;;;0.80;;
69244;SDS011;56357;52.304;4.870;2022-08-02T03:04:32;3.40;;;0.73;;
69244;SDS011;56357;52.304;4.870;2022-08-02T03:06:59;3.70;;;0.70;;
69244;SDS011;56357;52.304;4.870;2022-08-02T03:09:26;3.83;;;0.80;;
69244;SDS011;56357;52.304;4.870;2022-08-02T03:11:53;3.97;;;0.67;;
69244;SDS011;56357;52.304;4.870;2022-08-02T03:14:21;3.70;;;0.65;;
69244;SDS011;56357;52.304;4.870;2022-08-02T03:16:49;6.60;;;1.10;;
69244;SDS011;56357;52.304;4.870;2022-08-02T03:19:18;4.95;;;0.50;;
69244;SDS011;56357;52.304;4.870;2022-08-02T03:21:46;4.18;;;0.52;;
69244;SDS011;56357;52.304;4.870;2022-08-02T03:24:14;3.03;;;0.60;;
69244;SDS011;56357;52.304;4.870;2022-08-02T03:26:41;4.30;;;0.55;;
69244;SDS011;56357;52.304;4.870;2022-08-02T03:29:08;3.58;;;0.70;;
69244;SDS011;56357;52.304;4.870;2022-08-02T03:31:34;4.88;;;0.60;;
69244;SDS011;56357;52.304;4.870;2022-08-02T03:34:02;6.38;;;0.75;;
69244;SDS011;56357;52.304;4.870;2022-08-02T03:36:29;4.17;;;0.60;;
69244;SDS011;56357;52.304;4.870;2022-08-02T03:38:58;3.80;;;0.70;;
69244;SDS011;56357;52.304;4.870;2022-08-02T03:41:26;7.45;;;0.88;;
69244;SDS011;56357;52.304;4.870;2022-08-02T03:43:54;3.42;;;0.50;;
69244;SDS011;56357;52.304;4.870;2022-08-02T03:46:22;4.10;;;0.73;;
69244;SDS011;56357;52.304;4.870;2022-08-02T03:48:50;4.27;;;0.60;;
69244;SDS011;56357;52.304;4.870;2022-08-02T03:51:18;4.97;;;0.70;;
69244;SDS011;56357;52.304;4.870;2022-08-02T03:53:46;4.63;;;0.90;;
69244;SDS011;56357;52.304;4.870;2022-08-02T03:56:13;4.03;;;0.73;;
69244;SDS011;56357;52.304;4.870;2022-08-02T03:58:41;6.53;;;0.77;;
69244;SDS011;56357;52.304;4.870;2022-08-02T04:01:07;3.43;;;0.60;;
69244;SDS011;56357;52.304;4.870;2022-08-02T04:03:33;5.78;;;0.75;;
69244;SDS011;56357;52.304;4.870;2022-08-02T04:06:00;3.97;;;0.60;;
69244;SDS011;56357;52.304;4.870;2022-08-02T04:08:27;3.22;;;0.57;;
69244;SDS011;56357;52.304;4.870;2022-08-02T04:10:53;3.17;;;0.40;;
69244;SDS011;56357;52.304;4.870;2022-08-02T04:13:37;4.07;;;0.67;;
69244;SDS011;56357;52.304;4.870;2022-08-02T04:16:14;4.35;;;0.70;;
69244;SDS011;56357;52.304;4.870;2022-08-02T04:18:51;4.47;;;0.90;;
69244;SDS011;56357;52.304;4.870;2022-08-02T04:21:21;3.28;;;0.80;;
69244;SDS011;56357;52.304;4.870;2022-08-02T04:23:51;4.65;;;0.60;;
69244;SDS011;56357;52.304;4.870;2022-08-02T04:26:19;4.80;;;0.80;;
69244;SDS011;56357;52.304;4.870;2022-08-02T04:28:46;4.25;;;0.68;;
69244;SDS011;56357;52.304;4.870;2022-08-02T04:31:15;4.30;;;0.85;;
69244;SDS011;56357;52.304;4.870;2022-08-02T04:33:43;3.85;;;0.60;;
69244;SDS011;56357;52.304;4.870;2022-08-02T04:36:13;4.18;;;0.80;;
69244;SDS011;56357;52.304;4.870;2022-08-02T04:38:43;3.10;;;0.57;;
69244;SDS011;56357;52.304;4.870;2022-08-02T04:41:09;4.22;;;0.70;;
69244;SDS011;56357;52.304;4.870;2022-08-02T04:43:36;4.85;;;0.70;;
69244;SDS011;56357;52.304;4.870;2022-08-02T04:46:02;5.82;;;0.95;;
69244;SDS011;56357;52.304;4.870;2022-08-02T04:48:29;3.67;;;0.68;;
69244;SDS011;56357;52.304;4.870;2022-08-02T04:50:55;2.97;;;0.60;;
69244;SDS011;56357;52.304;4.870;2022-08-02T04:53:22;4.78;;;0.82;;
69244;SDS011;56357;52.304;4.870;2022-08-02T04:55:48;5.22;;;0.90;;
69244;SDS011;56357;52.304;4.870;2022-08-02T04:58:15;4.82;;;0.70;;
69244;SDS011;56357;52.304;4.870;2022-08-02T05:00:41;5.75;;;0.80;;
69244;SDS011;56357;52.304;4.870;2022-08-02T05:03:08;3.60;;;0.80;;
69244;SDS011;56357;52.304;4.870;2022-08-02T05:05:34;4.68;;;1.00;;
69244;SDS011;56357;52.304;4.870;2022-08-02T05:08:01;4.90;;;0.73;;
69244;SDS011;56357;52.304;4.870;2022-08-02T05:10:28;4.97;;;0.90;;
69244;SDS011;56357;52.304;4.870;2022-08-02T05:12:54;5.15;;;0.85;;
69244;SDS011;56357;52.304;4.870;2022-08-02T05:15:21;5.43;;;0.80;;
69244;SDS011;56357;52.304;4.870;2022-08-02T05:17:47;5.13;;;0.80;;
69244;SDS011;56357;52.304;4.870;2022-08-02T05:20:14;4.30;;;0.90;;
69244;SDS011;56357;52.304;4.870;2022-08-02T05:22:42;4.55;;;0.85;;
69244;SDS011;56357;52.304;4.870;2022-08-02T05:25:08;4.53;;;0.90;;
69244;SDS011;56357;52.304;4.870;2022-08-02T05:27:35;5.57;;;0.83;;
69244;SDS011;56357;52.304;4.870;2022-08-02T05:30:02;5.25;;;0.88;;
69244;SDS011;56357;52.304;4.870;2022-08-02T05:32:30;5.10;;;1.20;;
69244;SDS011;56357;52.304;4.870;2022-08-02T05:34:56;4.38;;;1.10;;
69244;SDS011;56357;52.304;4.870;2022-08-02T05:37:24;5.00;;;1.00;;
69244;SDS011;56357;52.304;4.870;2022-08-02T05:39:51;4.63;;;0.93;;
69244;SDS011;56357;52.304;4.870;2022-08-02T05:42:17;5.40;;;0.85;;
69244;SDS011;56357;52.304;4.870;2022-08-02T05:44:43;7.15;;;1.40;;
69244;SDS011;56357;52.304;4.870;2022-08-02T05:47:10;6.70;;;0.95;;
69244;SDS011;56357;52.304;4.870;2022-08-02T05:49:36;5.80;;;0.95;;
69244;SDS011;56357;52.304;4.870;2022-08-02T05:52:06;5.60;;;0.90;;
69244;SDS011;56357;52.304;4.870;2022-08-02T05:54:47;5.88;;;1.08;;
69244;SDS011;56357;52.304;4.870;2022-08-02T06:00:06;6.13;;;1.05;;
69244;SDS011;56357;52.304;4.870;2022-08-02T06:02:37;6.20;;;1.08;;
69244;SDS011;56357;52.304;4.870;2022-08-02T06:07:42;9.55;;;1.10;;
69244;SDS011;56357;52.304;4.870;2022-08-02T06:10:10;6.60;;;1.42;;
69244;SDS011;56357;52.304;4.870;2022-08-02T06:12:48;6.85;;;1.52;;
69244;SDS011;56357;52.304;4.870;2022-08-02T06:15:36;8.90;;;1.30;;
69244;SDS011;56357;52.304;4.870;2022-08-02T06:18:03;9.17;;;1.30;;
69244;SDS011;56357;52.304;4.870;2022-08-02T06:20:31;9.48;;;1.77;;
69244;SDS011;56357;52.304;4.870;2022-08-02T06:23:01;8.02;;;1.70;;
69244;SDS011;56357;52.304;4.870;2022-08-02T06:25:32;8.90;;;1.30;;
69244;SDS011;56357;52.304;4.870;2022-08-02T06:28:04;9.57;;;1.85;;
69244;SDS011;56357;52.304;4.870;2022-08-02T06:30:31;6.13;;;1.70;;
69244;SDS011;56357;52.304;4.870;2022-08-02T06:32:59;7.68;;;1.80;;
69244;SDS011;56357;52.304;4.870;2022-08-02T06:35:29;5.88;;;1.35;;
69244;SDS011;56357;52.304;4.870;2022-08-02T06:38:11;7.60;;;1.77;;
69244;SDS011;56357;52.304;4.870;2022-08-02T06:40:45;7.63;;;1.85;;
69244;SDS011;56357;52.304;4.870;2022-08-02T06:43:22;5.97;;;1.43;;
69244;SDS011;56357;52.304;4.870;2022-08-02T06:45:50;7.38;;;1.63;;
69244;SDS011;56357;52.304;4.870;2022-08-02T06:48:17;5.85;;;1.75;;
69244;SDS011;56357;52.304;4.870;2022-08-02T06:50:44;7.30;;;1.50;;
69244;SDS011;56357;52.304;4.870;2022-08-02T06:53:11;7.35;;;1.58;;
69244;SDS011;56357;52.304;4.870;2022-08-02T06:55:37;7.30;;;1.63;;
69244;SDS011;56357;52.304;4.870;2022-08-02T06:58:03;5.80;;;1.75;;
69244;SDS011;56357;52.304;4.870;2022-08-02T07:00:30;7.15;;;1.75;;
69244;SDS011;56357;52.304;4.870;2022-08-02T07:02:57;6.45;;;1.58;;
69244;SDS011;56357;52.304;4.870;2022-08-02T07:05:23;6.93;;;1.80;;
69244;SDS011;56357;52.304;4.870;2022-08-02T07:07:50;8.63;;;2.00;;
69244;SDS011;56357;52.304;4.870;2022-08-02T07:10:16;6.53;;;1.60;;
69244;SDS011;56357;52.304;4.870;2022-08-02T07:12:43;4.60;;;1.65;;
69244;SDS011;56357;52.304;4.870;2022-08-02T07:15:09;6.45;;;2.00;;
69244;SDS011;56357;52.304;4.870;2022-08-02T07:17:37;6.15;;;2.20;;
69244;SDS011;56357;52.304;4.870;2022-08-02T07:20:04;7.60;;;1.57;;
69244;SDS011;56357;52.304;4.870;2022-08-02T07:22:31;7.63;;;2.25;;
69244;SDS011;56357;52.304;4.870;2022-08-02T07:24:58;6.72;;;1.95;;
69244;SDS011;56357;52.304;4.870;2022-08-02T07:27:25;6.68;;;2.20;;
69244;SDS011;56357;52.304;4.870;2022-08-02T07:29:52;7.43;;;2.03;;
69244;SDS011;56357;52.304;4.870;2022-08-02T07:32:20;6.60;;;2.00;;
69244;SDS011;56357;52.304;4.870;2022-08-02T07:34:49;7.00;;;2.17;;
69244;SDS011;56357;52.304;4.870;2022-08-02T07:37:16;6.22;;;2.22;;
69244;SDS011;56357;52.304;4.870;2022-08-02T07:39:43;7.63;;;2.08;;
69244;SDS011;56357;52.304;4.870;2022-08-02T07:42:09;6.35;;;2.20;;
69244;SDS011;56357;52.304;4.870;2022-08-02T07:44:35;5.30;;;2.20;;
69244;SDS011;56357;52.304;4.870;2022-08-02T07:47:02;6.78;;;1.95;;
69244;SDS011;56357;52.304;4.870;2022-08-02T07:49:29;4.28;;;1.20;;
69244;SDS011;56357;52.304;4.870;2022-08-02T07:51:56;6.20;;;1.70;;
69244;SDS011;56357;52.304;4.870;2022-08-02T07:54:23;7.18;;;2.30;;
69244;SDS011;56357;52.304;4.870;2022-08-02T07:56:49;6.90;;;1.87;;
69244;SDS011;56357;52.304;4.870;2022-08-02T07:59:17;7.57;;;2.17;;
69244;SDS011;56357;52.304;4.870;2022-08-02T08:01:43;7.60;;;2.08;;
69244;SDS011;56357;52.304;4.870;2022-08-02T08:04:10;9.73;;;2.65;;
69244;SDS011;56357;52.304;4.870;2022-08-02T08:06:36;8.48;;;2.08;;
69244;SDS011;56357;52.304;4.870;2022-08-02T08:09:03;9.17;;;2.07;;
69244;SDS011;56357;52.304;4.870;2022-08-02T08:11:29;6.97;;;2.42;;
69244;SDS011;56357;52.304;4.870;2022-08-02T08:13:55;6.63;;;2.38;;
69244;SDS011;56357;52.304;4.870;2022-08-02T08:16:22;5.35;;;2.30;;
69244;SDS011;56357;52.304;4.870;2022-08-02T08:18:50;7.45;;;2.47;;
69244;SDS011;56357;52.304;4.870;2022-08-02T08:21:17;8.17;;;2.30;;
69244;SDS011;56357;52.304;4.870;2022-08-02T08:23:43;8.43;;;1.77;;
69244;SDS011;56357;52.304;4.870;2022-08-02T08:26:09;8.05;;;2.35;;
69244;SDS011;56357;52.304;4.870;2022-08-02T08:28:36;6.07;;;2.28;;
69244;SDS011;56357;52.304;4.870;2022-08-02T08:31:02;5.65;;;1.90;;
69244;SDS011;56357;52.304;4.870;2022-08-02T08:33:29;5.67;;;1.87;;
69244;SDS011;56357;52.304;4.870;2022-08-02T08:35:55;7.18;;;2.70;;
69244;SDS011;56357;52.304;4.870;2022-08-02T08:38:22;9.95;;;2.85;;
69244;SDS011;56357;52.304;4.870;2022-08-02T08:40:48;6.20;;;2.33;;
69244;SDS011;56357;52.304;4.870;2022-08-02T08:43:15;7.40;;;2.20;;
69244;SDS011;56357;52.304;4.870;2022-08-02T08:45:42;7.40;;;2.53;;
69244;SDS011;56357;52.304;4.870;2022-08-02T08:48:11;8.30;;;2.55;;
69244;SDS011;56357;52.304;4.870;2022-08-02T08:50:45;6.15;;;2.20;;
69244;SDS011;56357;52.304;4.870;2022-08-02T08:53:15;8.55;;;2.95;;
69244;SDS011;56357;52.304;4.870;2022-08-02T08:55:42;6.50;;;2.20;;
69244;SDS011;56357;52.304;4.870;2022-08-02T08:58:10;5.47;;;2.17;;
69244;SDS011;56357;52.304;4.870;2022-08-02T09:00:36;5.65;;;1.70;;
69244;SDS011;56357;52.304;4.870;2022-08-02T09:03:03;8.25;;;3.00;;
69244;SDS011;56357;52.304;4.870;2022-08-02T09:05:33;9.65;;;2.90;;
69244;SDS011;56357;52.304;4.870;2022-08-02T09:08:01;4.97;;;2.15;;
69244;SDS011;56357;52.304;4.870;2022-08-02T09:13:09;7.75;;;2.83;;
69244;SDS011;56357;52.304;4.870;2022-08-02T09:15:41;6.88;;;2.70;;
69244;SDS011;56357;52.304;4.870;2022-08-02T09:18:10;5.15;;;1.55;;
69244;SDS011;56357;52.304;4.870;2022-08-02T09:20:50;6.50;;;2.60;;
69244;SDS011;56357;52.304;4.870;2022-08-02T09:23:22;6.63;;;1.70;;
69244;SDS011;56357;52.304;4.870;2022-08-02T09:25:59;6.55;;;2.70;;
69244;SDS011;56357;52.304;4.870;2022-08-02T09:28:28;6.20;;;3.10;;
69244;SDS011;56357;52.304;4.870;2022-08-02T09:33:34;5.43;;;2.53;;
69244;SDS011;56357;52.304;4.870;2022-08-02T09:41:20;6.85;;;2.70;;
69244;SDS011;56357;52.304;4.870;2022-08-02T09:43:48;4.45;;;1.88;;
69244;SDS011;56357;52.304;4.870;2022-08-02T09:46:21;6.80;;;2.90;;
69244;SDS011;56357;52.304;4.870;2022-08-02T09:48:55;5.70;;;2.13;;
69244;SDS011;56357;52.304;4.870;2022-08-02T09:51:24;5.88;;;2.20;;
69244;SDS011;56357;52.304;4.870;2022-08-02T09:53:55;5.22;;;2.30;;
69244;SDS011;56357;52.304;4.870;2022-08-02T09:56:23;7.55;;;2.63;;
69244;SDS011;56357;52.304;4.870;2022-08-02T09:58:51;6.07;;;2.60;;
69244;SDS011;56357;52.304;4.870;2022-08-02T10:01:28;5.27;;;2.10;;
69244;SDS011;56357;52.304;4.870;2022-08-02T10:03:58;5.45;;;2.50;;
69244;SDS011;56357;52.304;4.870;2022-08-02T10:06:26;6.82;;;2.10;;
69244;SDS011;56357;52.304;4.870;2022-08-02T10:08:53;5.75;;;2.15;;
69244;SDS011;56357;52.304;4.870;2022-08-02T10:11:20;5.47;;;2.10;;
69244;SDS011;56357;52.304;4.870;2022-08-02T10:13:48;4.57;;;2.20;;
69244;SDS011;56357;52.304;4.870;2022-08-02T10:16:17;6.25;;;1.98;;
69244;SDS011;56357;52.304;4.870;2022-08-02T10:18:47;6.32;;;2.38;;
69244;SDS011;56357;52.304;4.870;2022-08-02T10:21:19;7.47;;;2.00;;
69244;SDS011;56357;52.304;4.870;2022-08-02T10:23:54;7.50;;;2.90;;
69244;SDS011;56357;52.304;4.870;2022-08-02T10:26:49;6.77;;;1.93;;
69244;SDS011;56357;52.304;4.870;2022-08-02T10:29:16;5.47;;;2.47;;
69244;SDS011;56357;52.304;4.870;2022-08-02T10:31:52;6.75;;;2.25;;
69244;SDS011;56357;52.304;4.870;2022-08-02T10:34:23;5.70;;;2.75;;
69244;SDS011;56357;52.304;4.870;2022-08-02T10:36:55;6.93;;;2.50;;
69244;SDS011;56357;52.304;4.870;2022-08-02T10:39:22;5.83;;;2.20;;
69244;SDS011;56357;52.304;4.870;2022-08-02T10:41:51;5.40;;;2.20;;
69244;SDS011;56357;52.304;4.870;2022-08-02T10:46:47;7.20;;;2.28;;
69244;SDS011;56357;52.304;4.870;2022-08-02T10:49:18;7.03;;;2.45;;
69244;SDS011;56357;52.304;4.870;2022-08-02T10:54:18;5.57;;;2.50;;
69244;SDS011;56357;52.304;4.870;2022-08-02T10:56:47;5.47;;;2.47;;
69244;SDS011;56357;52.304;4.870;2022-08-02T10:59:24;5.45;;;2.20;;
69244;SDS011;56357;52.304;4.870;2022-08-02T11:02:00;5.55;;;2.00;;
69244;SDS011;56357;52.304;4.870;2022-08-02T11:09:41;5.88;;;2.08;;
69244;SDS011;56357;52.304;4.870;2022-08-02T11:12:10;5.75;;;2.05;;
69244;SDS011;56357;52.304;4.870;2022-08-02T11:14:38;4.78;;;2.00;;
69244;SDS011;56357;52.304;4.870;2022-08-02T11:17:07;5.90;;;2.50;;
69244;SDS011;56357;52.304;4.870;2022-08-02T11:20:13;6.65;;;2.30;;
69244;SDS011;56357;52.304;4.870;2022-08-02T11:22:33;5.60;;;2.03;;
69244;SDS011;56357;52.304;4.870;2022-08-02T11:27:49;7.65;;;2.38;;
69244;SDS011;56357;52.304;4.870;2022-08-02T11:30:23;5.10;;;1.80;;
69244;SDS011;56357;52.304;4.870;2022-08-02T11:32:54;4.95;;;1.80;;
69244;SDS011;56357;52.304;4.870;2022-08-02T11:35:22;4.97;;;1.98;;
69244;SDS011;56357;52.304;4.870;2022-08-02T11:37:57;5.82;;;1.90;;
69244;SDS011;56357;52.304;4.870;2022-08-02T11:40:23;5.85;;;1.58;;
69244;SDS011;56357;52.304;4.870;2022-08-02T11:43:03;6.20;;;1.77;;
69244;SDS011;56357;52.304;4.870;2022-08-02T11:45:29;5.03;;;1.70;;
69244;SDS011;56357;52.304;4.870;2022-08-02T11:47:56;4.10;;;1.88;;
69244;SDS011;56357;52.304;4.870;2022-08-02T11:50:22;5.30;;;2.10;;
69244;SDS011;56357;52.304;4.870;2022-08-02T11:52:49;5.50;;;2.03;;
69244;SDS011;56357;52.304;4.870;2022-08-02T11:55:17;5.57;;;2.17;;
69244;SDS011;56357;52.304;4.870;2022-08-02T11:57:56;4.95;;;1.67;;
69244;SDS011;56357;52.304;4.870;2022-08-02T12:00:24;5.53;;;2.17;;
69244;SDS011;56357;52.304;4.870;2022-08-02T12:02:50;4.15;;;1.92;;
69244;SDS011;56357;52.304;4.870;2022-08-02T12:05:18;4.68;;;2.28;;
69244;SDS011;56357;52.304;4.870;2022-08-02T12:07:47;4.37;;;2.00;;
69244;SDS011;56357;52.304;4.870;2022-08-02T12:10:20;5.07;;;2.22;;
69244;SDS011;56357;52.304;4.870;2022-08-02T12:12:55;5.05;;;2.30;;
69244;SDS011;56357;52.304;4.870;2022-08-02T12:18:08;5.07;;;2.25;;
69244;SDS011;56357;52.304;4.870;2022-08-02T12:21:19;5.33;;;2.40;;
69244;SDS011;56357;52.304;4.870;2022-08-02T12:23:50;6.00;;;1.80;;
69244;SDS011;56357;52.304;4.870;2022-08-02T12:26:17;4.65;;;2.30;;
69244;SDS011;56357;52.304;4.870;2022-08-02T12:28:43;6.35;;;2.10;;
69244;SDS011;56357;52.304;4.870;2022-08-02T12:31:10;5.43;;;2.25;;
69244;SDS011;56357;52.304;4.870;2022-08-02T12:33:45;4.83;;;2.30;;
69244;SDS011;56357;52.304;4.870;2022-08-02T12:36:21;5.40;;;2.00;;
69244;SDS011;56357;52.304;4.870;2022-08-02T12:41:21;6.30;;;1.80;;
69244;SDS011;56357;52.304;4.870;2022-08-02T12:43:50;5.07;;;2.08;;
69244;SDS011;56357;52.304;4.870;2022-08-02T12:46:18;4.57;;;2.00;;
69244;SDS011;56357;52.304;4.870;2022-08-02T12:48:46;4.68;;;1.88;;
69244;SDS011;56357;52.304;4.870;2022-08-02T12:51:27;4.60;;;2.08;;
69244;SDS011;56357;52.304;4.870;2022-08-02T12:54:09;5.00;;;2.08;;
69244;SDS011;56357;52.304;4.870;2022-08-02T12:56:38;4.78;;;1.90;;
69244;SDS011;56357;52.304;4.870;2022-08-02T12:59:05;4.60;;;1.70;;
69244;SDS011;56357;52.304;4.870;2022-08-02T13:01:32;5.22;;;1.83;;
69244;SDS011;56357;52.304;4.870;2022-08-02T13:03:59;4.00;;;2.08;;
69244;SDS011;56357;52.304;4.870;2022-08-02T13:06:26;6.72;;;1.98;;
69244;SDS011;56357;52.304;4.870;2022-08-02T13:08:52;5.85;;;2.20;;
69244;SDS011;56357;52.304;4.870;2022-08-02T13:11:20;4.33;;;1.80;;
69244;SDS011;56357;52.304;4.870;2022-08-02T13:13:47;6.38;;;2.10;;
69244;SDS011;56357;52.304;4.870;2022-08-02T13:16:14;5.38;;;2.50;;
69244;SDS011;56357;52.304;4.870;2022-08-02T13:18:41;6.88;;;1.88;;
69244;SDS011;56357;52.304;4.870;2022-08-02T13:21:09;5.43;;;1.98;;
69244;SDS011;56357;52.304;4.870;2022-08-02T13:23:36;5.43;;;2.10;;
69244;SDS011;56357;52.304;4.870;2022-08-02T13:26:03;5.47;;;2.00;;
69244;SDS011;56357;52.304;4.870;2022-08-02T13:28:30;6.90;;;1.95;;
69244;SDS011;56357;52.304;4.870;2022-08-02T13:30:57;6.25;;;2.20;;
69244;SDS011;56357;52.304;4.870;2022-08-02T13:33:23;11.73;;;2.15;;
69244;SDS011;56357;52.304;4.870;2022-08-02T13:35:49;5.27;;;2.30;;
69244;SDS011;56357;52.304;4.870;2022-08-02T13:38:16;6.13;;;2.30;;
69244;SDS011;56357;52.304;4.870;2022-08-02T13:40:42;5.20;;;2.05;;
69244;SDS011;56357;52.304;4.870;2022-08-02T13:43:23;5.00;;;1.70;;
69244;SDS011;56357;52.304;4.870;2022-08-02T13:45:49;5.40;;;1.85;;
69244;SDS011;56357;52.304;4.870;2022-08-02T13:48:16;7.23;;;1.77;;
69244;SDS011;56357;52.304;4.870;2022-08-02T13:50:42;5.25;;;1.75;;
69244;SDS011;56357;52.304;4.870;2022-08-02T13:53:09;5.05;;;1.88;;
69244;SDS011;56357;52.304;4.870;2022-08-02T13:55:35;5.63;;;1.90;;
69244;SDS011;56357;52.304;4.870;2022-08-02T13:58:03;5.75;;;1.80;;
69244;SDS011;56357;52.304;4.870;2022-08-02T14:00:30;7.00;;;2.03;;
69244;SDS011;56357;52.304;4.870;2022-08-02T14:02:56;6.32;;;2.10;;
69244;SDS011;56357;52.304;4.870;2022-08-02T14:05:23;6.25;;;2.47;;
69244;SDS011;56357;52.304;4.870;2022-08-02T14:07:54;5.63;;;1.75;;
69244;SDS011;56357;52.304;4.870;2022-08-02T14:10:22;5.22;;;2.00;;
69244;SDS011;56357;52.304;4.870;2022-08-02T14:12:50;7.77;;;2.40;;
69244;SDS011;56357;52.304;4.870;2022-08-02T14:15:17;6.13;;;2.15;;
69244;SDS011;56357;52.304;4.870;2022-08-02T14:17:43;6.30;;;2.35;;
69244;SDS011;56357;52.304;4.870;2022-08-02T14:20:10;6.20;;;2.30;;
69244;SDS011;56357;52.304;4.870;2022-08-02T14:22:37;8.18;;;2.50;;
69244;SDS011;56357;52.304;4.870;2022-08-02T14:25:04;6.37;;;2.57;;
69244;SDS011;56357;52.304;4.870;2022-08-02T14:27:31;6.22;;;2.33;;
69244;SDS011;56357;52.304;4.870;2022-08-02T14:29:57;6.78;;;2.10;;
69244;SDS011;56357;52.304;4.870;2022-08-02T14:32:24;4.70;;;1.75;;
69244;SDS011;56357;52.304;4.870;2022-08-02T14:34:51;4.97;;;1.90;;
69244;SDS011;56357;52.304;4.870;2022-08-02T14:37:18;6.30;;;1.60;;
69244;SDS011;56357;52.304;4.870;2022-08-02T14:39:44;5.43;;;1.80;;
69244;SDS011;56357;52.304;4.870;2022-08-02T14:42:11;7.15;;;2.20;;
69244;SDS011;56357;52.304;4.870;2022-08-02T14:44:37;5.18;;;1.98;;
69244;SDS011;56357;52.304;4.870;2022-08-02T14:47:03;6.25;;;1.70;;
69244;SDS011;56357;52.304;4.870;2022-08-02T14:49:30;6.47;;;2.00;;
69244;SDS011;56357;52.304;4.870;2022-08-02T14:51:57;4.47;;;1.83;;
69244;SDS011;56357;52.304;4.870;2022-08-02T14:54:24;8.20;;;2.13;;
69244;SDS011;56357;52.304;4.870;2022-08-02T14:56:53;8.13;;;2.00;;
69244;SDS011;56357;52.304;4.870;2022-08-02T14:59:20;6.32;;;2.22;;
69244;SDS011;56357;52.304;4.870;2022-08-02T15:01:46;6.00;;;2.00;;
69244;SDS011;56357;52.304;4.870;2022-08-02T15:04:13;6.10;;;1.98;;
69244;SDS011;56357;52.304;4.870;2022-08-02T15:06:39;5.60;;;2.35;;
69244;SDS011;56357;52.304;4.870;2022-08-02T15:09:05;6.80;;;1.90;;
69244;SDS011;56357;52.304;4.870;2022-08-02T15:11:32;6.18;;;2.30;;
69244;SDS011;56357;52.304;4.870;2022-08-02T15:13:58;5.83;;;2.30;;
69244;SDS011;56357;52.304;4.870;2022-08-02T15:16:25;7.60;;;1.85;;
69244;SDS011;56357;52.304;4.870;2022-08-02T15:18:51;5.38;;;2.13;;
69244;SDS011;56357;52.304;4.870;2022-08-02T15:21:17;7.75;;;2.20;;
69244;SDS011;56357;52.304;4.870;2022-08-02T15:23:44;12.20;;;2.28;;
69244;SDS011;56357;52.304;4.870;2022-08-02T15:26:10;22.97;;;2.90;;
69244;SDS011;56357;52.304;4.870;2022-08-02T15:28:37;7.57;;;2.10;;
69244;SDS011;56357;52.304;4.870;2022-08-02T15:31:03;8.27;;;2.50;;
69244;SDS011;56357;52.304;4.870;2022-08-02T15:33:29;8.50;;;2.58;;
69244;SDS011;56357;52.304;4.870;2022-08-02T15:35:56;7.93;;;2.22;;
69244;SDS011;56357;52.304;4.870;2022-08-02T15:38:22;7.30;;;2.10;;
69244;SDS011;56357;52.304;4.870;2022-08-02T15:40:49;8.50;;;2.65;;
69244;SDS011;56357;52.304;4.870;2022-08-02T15:43:15;10.68;;;2.40;;